createdAt,value
2017-07-29T00:01:36.980Z,100320.55
2017-07-29T00:04:04.437Z,100314.74
2017-07-29T00:06:32.441Z,100323.62
2017-07-29T00:08:59.912Z,100325.20
2017-07-29T00:11:27.387Z,100316.71
2017-07-29T00:13:54.827Z,100316.61
2017-07-29T00:16:22.323Z,100319.30
2017-07-29T00:18:50.747Z,100319.72
2017-07-29T00:21:18.362Z,100315.26
2017-07-29T00:23:45.930Z,100315.73
2017-07-29T00:26:13.480Z,100312.47
2017-07-29T00:28:40.923Z,100313.03
2017-07-29T00:31:08.397Z,100319.36
2017-07-29T00:33:35.863Z,100316.91
2017-07-29T00:36:03.408Z,100318.63
2017-07-29T00:38:30.914Z,100312.70
2017-07-29T00:40:58.423Z,100310.05
2017-07-29T00:43:25.896Z,100315.11
2017-07-29T00:45:53.351Z,100313.58
2017-07-29T00:48:20.822Z,100308.96
2017-07-29T00:50:48.348Z,100309.55
2017-07-29T00:53:15.819Z,100313.39
2017-07-29T00:55:43.359Z,100312.03
2017-07-29T00:58:10.835Z,100308.35
2017-07-29T01:00:38.288Z,100316.46
2017-07-29T01:03:05.756Z,100315.80
2017-07-29T01:05:33.292Z,100315.84
2017-07-29T01:08:00.792Z,100306.13
2017-07-29T01:10:28.307Z,100307.44
2017-07-29T01:12:55.771Z,100312.91
2017-07-29T01:15:23.220Z,100307.63
2017-07-29T01:17:50.728Z,100304.80
2017-07-29T01:20:18.848Z,100304.11
2017-07-29T01:22:46.409Z,100299.61
2017-07-29T01:25:13.968Z,100296.86
2017-07-29T01:27:41.435Z,100301.81
2017-07-29T01:30:08.991Z,100301.63
2017-07-29T01:32:36.666Z,100303.06
2017-07-29T01:35:04.115Z,100295.09
2017-07-29T01:37:31.671Z,100294.66
2017-07-29T01:39:59.219Z,100296.39
2017-07-29T01:42:26.659Z,100296.05
2017-07-29T01:44:54.647Z,100292.55
2017-07-29T01:47:22.103Z,100285.23
2017-07-29T01:49:49.571Z,100289.70
2017-07-29T01:52:17.079Z,100291.14
2017-07-29T01:54:44.574Z,100296.09
2017-07-29T01:57:12.130Z,100296.27
2017-07-29T01:59:39.595Z,100298.20
2017-07-29T02:02:07.147Z,100298.34
2017-07-29T02:04:34.622Z,100298.34
2017-07-29T02:07:02.079Z,100303.34
2017-07-29T02:09:30.054Z,100296.52
2017-07-29T02:11:57.511Z,100293.77
2017-07-29T02:14:24.985Z,100300.41
2017-07-29T02:16:52.426Z,100298.82
2017-07-29T02:19:19.916Z,100297.00
2017-07-29T02:21:47.387Z,100300.56
2017-07-29T02:24:14.868Z,100305.31
2017-07-29T02:26:42.311Z,100301.72
2017-07-29T02:29:09.795Z,100298.55
2017-07-29T02:31:37.376Z,100305.03
2017-07-29T02:34:04.851Z,100304.31
2017-07-29T02:36:32.353Z,100304.28
2017-07-29T02:38:59.786Z,100298.94
2017-07-29T02:41:27.262Z,100296.61
2017-07-29T02:43:54.723Z,100296.56
2017-07-29T02:46:22.447Z,100300.55
2017-07-29T02:48:49.940Z,100303.99
2017-07-29T02:51:17.423Z,100299.80
2017-07-29T02:53:44.871Z,100297.37
2017-07-29T02:56:12.352Z,100288.59
2017-07-29T02:58:39.831Z,100283.49
2017-07-29T03:01:07.327Z,100283.95
2017-07-29T03:03:34.767Z,100292.73
2017-07-29T03:06:02.240Z,100291.91
2017-07-29T03:08:29.697Z,100291.73
2017-07-29T03:10:57.260Z,100299.18
2017-07-29T03:13:24.712Z,100302.15
2017-07-29T03:15:52.202Z,100299.69
2017-07-29T03:18:19.651Z,100292.88
2017-07-29T03:20:47.183Z,100284.94
2017-07-29T03:23:14.699Z,100285.62
2017-07-29T03:25:42.162Z,100285.00
2017-07-29T03:28:09.663Z,100283.98
2017-07-29T03:30:37.212Z,100283.41
2017-07-29T03:33:04.678Z,100278.38
2017-07-29T03:35:32.133Z,100274.20
2017-07-29T03:37:59.588Z,100274.96
2017-07-29T03:40:27.050Z,100276.12
2017-07-29T03:42:54.701Z,100280.95
2017-07-29T03:45:22.144Z,100278.55
2017-07-29T03:47:49.675Z,100278.75
2017-07-29T03:50:17.187Z,100286.58
2017-07-29T03:52:44.660Z,100289.45
2017-07-29T03:55:12.119Z,100278.20
2017-07-29T03:57:39.634Z,100287.77
2017-07-29T04:00:07.102Z,100294.73
2017-07-29T04:02:34.662Z,100287.91
2017-07-29T04:05:02.116Z,100299.11
2017-07-29T04:07:29.675Z,100297.23
2017-07-29T04:09:57.122Z,100299.09
2017-07-29T04:12:24.578Z,100298.27
2017-07-29T04:14:52.047Z,100295.50
2017-07-29T04:17:19.607Z,100297.67
2017-07-29T04:19:47.042Z,100305.53
2017-07-29T04:22:14.504Z,100303.70
2017-07-29T04:24:41.951Z,100305.63
2017-07-29T04:27:09.550Z,100298.34
2017-07-29T04:29:37.087Z,100303.12
2017-07-29T04:32:04.548Z,100306.37
2017-07-29T04:34:32.098Z,100306.23
2017-07-29T04:36:59.563Z,100299.20
2017-07-29T04:39:27.915Z,100300.22
2017-07-29T04:41:55.396Z,100301.52
2017-07-29T04:44:22.857Z,100302.33
2017-07-29T04:46:50.319Z,100299.45
2017-07-29T04:49:17.868Z,100299.55
2017-07-29T04:51:45.730Z,100303.67
2017-07-29T04:54:13.293Z,100310.41
2017-07-29T04:56:40.735Z,100317.22
2017-07-29T04:59:08.211Z,100316.14
2017-07-29T05:01:35.662Z,100311.34
2017-07-29T05:04:03.575Z,100316.71
2017-07-29T05:06:31.037Z,100311.73
2017-07-29T05:08:58.534Z,100307.05
2017-07-29T05:11:26.000Z,100303.87
2017-07-29T05:13:53.508Z,100296.28
2017-07-29T05:16:21.703Z,100297.67
2017-07-29T05:18:49.201Z,100288.80
2017-07-29T05:21:16.747Z,100291.61
2017-07-29T05:23:44.315Z,100289.45
2017-07-29T05:26:11.763Z,100287.81
2017-07-29T05:28:40.019Z,100283.92
2017-07-29T05:31:07.458Z,100283.73
2017-07-29T05:33:34.950Z,100290.65
2017-07-29T05:36:02.391Z,100289.00
2017-07-29T05:38:29.863Z,100297.63
2017-07-29T05:40:57.542Z,100295.02
2017-07-29T05:43:24.991Z,100300.47
2017-07-29T05:45:52.453Z,100310.27
2017-07-29T05:48:19.902Z,100308.86
2017-07-29T05:50:47.402Z,100318.45
2017-07-29T05:53:14.848Z,100308.08
2017-07-29T05:55:42.365Z,100314.52
2017-07-29T05:58:09.856Z,100315.98
2017-07-29T06:00:37.325Z,100313.98
2017-07-29T06:03:04.779Z,100306.55
2017-07-29T06:05:32.247Z,100318.19
2017-07-29T06:07:59.857Z,100313.45
2017-07-29T06:10:27.402Z,100309.84
2017-07-29T06:12:54.863Z,100312.14
2017-07-29T06:15:22.346Z,100310.47
2017-07-29T06:17:49.811Z,100310.98
2017-07-29T06:20:17.284Z,100309.75
2017-07-29T06:22:44.734Z,100307.39
2017-07-29T06:25:12.202Z,100309.34
2017-07-29T06:27:39.666Z,100310.27
2017-07-29T06:30:07.219Z,100308.16
2017-07-29T06:32:34.678Z,100310.52
2017-07-29T06:35:02.183Z,100308.18
2017-07-29T06:37:29.735Z,100305.39
2017-07-29T06:39:57.204Z,100318.47
2017-07-29T06:42:24.661Z,100315.91
2017-07-29T06:44:52.131Z,100321.59
2017-07-29T06:47:19.579Z,100329.86
2017-07-29T06:49:47.086Z,100328.19
2017-07-29T06:52:14.606Z,100329.49
2017-07-29T06:54:42.194Z,100327.67
2017-07-29T06:57:09.697Z,100327.09
2017-07-29T06:59:37.257Z,100327.67
2017-07-29T07:02:04.731Z,100324.59
2017-07-29T07:04:32.192Z,100320.38
2017-07-29T07:06:59.654Z,100322.41
2017-07-29T07:09:27.098Z,100313.33
2017-07-29T07:11:54.591Z,100315.28
2017-07-29T07:14:22.042Z,100308.52
2017-07-29T07:16:49.555Z,100314.20
2017-07-29T07:19:17.030Z,100308.64
2017-07-29T07:21:44.518Z,100312.33
2017-07-29T07:24:11.994Z,100308.13
2017-07-29T07:26:39.483Z,100314.57
2017-07-29T07:29:06.928Z,100313.70
2017-07-29T07:31:34.399Z,100310.91
2017-07-29T07:34:02.051Z,100307.24
2017-07-29T07:36:29.611Z,100296.73
2017-07-29T07:38:57.071Z,100301.97
2017-07-29T07:41:24.539Z,100313.16
2017-07-29T07:43:52.232Z,100317.55
2017-07-29T07:46:19.747Z,100315.27
2017-07-29T07:48:47.221Z,100320.86
2017-07-29T07:51:15.582Z,100325.94
2017-07-29T07:53:43.056Z,100322.58
2017-07-29T07:56:10.503Z,100324.13
2017-07-29T07:58:37.965Z,100317.64
2017-07-29T08:01:05.439Z,100315.06
2017-07-29T08:03:32.954Z,100313.48
2017-07-29T08:06:00.414Z,100321.87
2017-07-29T08:08:27.906Z,100321.05
2017-07-29T08:10:55.491Z,100311.86
2017-07-29T08:13:23.094Z,100318.55
2017-07-29T08:15:50.626Z,100315.13
2017-07-29T08:18:18.085Z,100314.78
2017-07-29T08:20:45.562Z,100315.31
2017-07-29T08:23:13.062Z,100316.81
2017-07-29T08:25:40.583Z,100314.06
2017-07-29T08:28:08.071Z,100308.44
2017-07-29T08:30:35.718Z,100313.38
2017-07-29T08:33:05.306Z,100312.25
2017-07-29T08:35:32.879Z,100310.83
2017-07-29T08:38:00.354Z,100304.09
2017-07-29T08:40:27.792Z,100303.59
2017-07-29T08:42:55.267Z,100313.57
2017-07-29T08:45:22.731Z,100312.98
2017-07-29T08:47:50.171Z,100313.06
2017-07-29T08:50:17.636Z,100311.75
2017-07-29T08:52:45.097Z,100307.55
2017-07-29T08:55:12.623Z,100308.61
2017-07-29T08:57:40.068Z,100308.66
2017-07-29T09:00:07.531Z,100305.89
2017-07-29T09:02:35.003Z,100310.69
2017-07-29T09:05:02.543Z,100314.27
2017-07-29T09:07:30.003Z,100307.06
2017-07-29T09:09:58.092Z,100302.77
2017-07-29T09:12:25.538Z,100299.70
2017-07-29T09:14:53.004Z,100301.81
2017-07-29T09:17:20.454Z,100301.70
2017-07-29T09:19:47.927Z,100305.32
2017-07-29T09:22:23.720Z,100319.28
2017-07-29T09:24:51.193Z,100312.77
2017-07-29T09:27:18.636Z,100301.42
2017-07-29T09:29:46.131Z,100309.13
2017-07-29T09:32:13.578Z,100310.36
2017-07-29T09:34:41.057Z,100307.48
2017-07-29T09:37:08.518Z,100306.88
2017-07-29T09:39:35.958Z,100301.27
2017-07-29T09:42:03.816Z,100304.20
2017-07-29T09:44:31.272Z,100302.84
2017-07-29T09:46:58.740Z,100307.70
2017-07-29T09:49:26.290Z,100297.13
2017-07-29T09:51:53.768Z,100295.97
2017-07-29T09:54:21.307Z,100285.06
2017-07-29T09:56:48.775Z,100288.87
2017-07-29T09:59:16.227Z,100295.55
2017-07-29T10:01:43.686Z,100288.96
2017-07-29T10:04:11.131Z,100284.91
2017-07-29T10:06:38.595Z,100284.34
2017-07-29T10:09:06.044Z,100286.91
2017-07-29T10:11:33.523Z,100283.41
2017-07-29T10:14:01.057Z,100278.20
2017-07-29T10:16:28.516Z,100276.14
2017-07-29T10:18:55.964Z,100275.16
2017-07-29T10:21:23.523Z,100271.75
2017-07-29T10:23:50.961Z,100269.70
2017-07-29T10:26:18.444Z,100260.94
2017-07-29T10:28:45.888Z,100263.77
2017-07-29T10:31:13.426Z,100260.00
2017-07-29T10:33:40.911Z,100264.59
2017-07-29T10:36:08.361Z,100257.00
2017-07-29T10:38:36.234Z,100267.28
2017-07-29T10:41:03.795Z,100258.19
2017-07-29T10:43:31.265Z,100253.93
2017-07-29T10:45:58.819Z,100265.91
2017-07-29T10:48:26.287Z,100255.38
2017-07-29T10:50:53.975Z,100252.39
2017-07-29T10:53:21.487Z,100254.52
2017-07-29T10:55:48.936Z,100247.61
2017-07-29T10:58:16.583Z,100252.92
2017-07-29T11:00:44.068Z,100247.69
2017-07-29T11:03:12.434Z,100252.39
2017-07-29T11:05:39.952Z,100251.00
2017-07-29T11:08:07.422Z,100254.89
2017-07-29T11:10:34.875Z,100255.09
2017-07-29T11:13:04.818Z,100249.37
2017-07-29T11:15:32.379Z,100251.64
2017-07-29T11:17:59.943Z,100244.27
2017-07-29T11:20:27.385Z,100243.07
2017-07-29T11:22:54.859Z,100246.25
2017-07-29T11:25:22.313Z,100242.05
2017-07-29T11:27:49.851Z,100243.20
2017-07-29T11:30:17.324Z,100237.52
2017-07-29T11:32:44.772Z,100237.71
2017-07-29T11:35:12.307Z,100236.77
2017-07-29T11:37:39.815Z,100224.98
2017-07-29T11:40:07.377Z,100229.89
2017-07-29T11:42:34.882Z,100227.84
2017-07-29T11:45:02.352Z,100226.27
2017-07-29T11:47:29.842Z,100232.18
2017-07-29T11:49:57.388Z,100220.63
2017-07-29T11:52:24.831Z,100224.95
2017-07-29T11:54:52.330Z,100225.29
2017-07-29T11:57:19.859Z,100227.77
2017-07-29T11:59:47.438Z,100225.45
2017-07-29T12:02:14.899Z,100224.98
2017-07-29T12:04:43.356Z,100220.19
2017-07-29T12:07:10.798Z,100222.12
2017-07-29T12:09:38.267Z,100230.30
2017-07-29T12:12:05.707Z,100235.08
2017-07-29T12:14:33.177Z,100226.83
2017-07-29T12:17:00.614Z,100227.00
2017-07-29T12:19:28.084Z,100224.59
2017-07-29T12:21:55.550Z,100227.66
2017-07-29T12:24:23.017Z,100225.95
2017-07-29T12:26:50.467Z,100220.73
2017-07-29T12:29:17.924Z,100219.83
2017-07-29T12:31:45.471Z,100221.62
2017-07-29T12:34:12.987Z,100224.88
2017-07-29T12:36:40.447Z,100223.86
2017-07-29T12:39:07.893Z,100215.50
2017-07-29T12:41:35.374Z,100206.02
2017-07-29T12:44:02.863Z,100208.42
2017-07-29T12:46:30.340Z,100224.30
2017-07-29T12:48:57.802Z,100209.37
2017-07-29T12:51:25.333Z,100209.95
2017-07-29T12:53:52.790Z,100210.65
2017-07-29T12:56:21.055Z,100202.63
2017-07-29T12:58:48.513Z,100203.48
2017-07-29T13:01:15.979Z,100205.09
2017-07-29T13:03:43.430Z,100199.52
2017-07-29T13:06:10.903Z,100187.08
2017-07-29T13:08:38.353Z,100187.62
2017-07-29T13:11:05.827Z,100192.67
2017-07-29T13:13:34.969Z,100193.53
2017-07-29T13:16:02.424Z,100188.14
2017-07-29T13:18:29.921Z,100189.88
2017-07-29T13:20:57.473Z,100183.55
2017-07-29T13:23:25.031Z,100184.14
2017-07-29T13:25:52.579Z,100183.23
2017-07-29T13:28:20.043Z,100177.47
2017-07-29T13:30:47.488Z,100174.32
2017-07-29T13:33:15.370Z,100175.95
2017-07-29T13:35:42.826Z,100165.55
2017-07-29T13:38:10.310Z,100164.61
2017-07-29T13:40:37.763Z,100171.98
2017-07-29T13:43:05.252Z,100160.61
2017-07-29T13:45:32.711Z,100158.87
2017-07-29T13:48:00.176Z,100154.50
2017-07-29T13:50:27.616Z,100159.06
2017-07-29T13:52:55.128Z,100161.03
2017-07-29T13:55:22.704Z,100156.80
2017-07-29T13:57:50.275Z,100161.59
2017-07-29T14:00:18.343Z,100153.05
2017-07-29T14:02:45.820Z,100149.10
2017-07-29T14:05:13.296Z,100155.86
2017-07-29T14:07:40.780Z,100146.00
2017-07-29T14:10:08.213Z,100146.36
2017-07-29T14:12:35.699Z,100143.09
2017-07-29T14:15:03.162Z,100145.99
2017-07-29T14:17:30.707Z,100148.39
2017-07-29T14:19:58.178Z,100139.39
2017-07-29T14:22:25.719Z,100134.11
2017-07-29T14:24:53.443Z,100138.91
2017-07-29T14:27:20.891Z,100135.81
2017-07-29T14:29:48.407Z,100135.87
2017-07-29T14:32:15.854Z,100136.83
2017-07-29T14:34:43.322Z,100134.44
2017-07-29T14:37:10.762Z,100132.72
2017-07-29T14:39:38.228Z,100136.30
2017-07-29T14:42:05.670Z,100136.06
2017-07-29T14:44:33.141Z,100139.91
2017-07-29T14:47:00.700Z,100131.59
2017-07-29T14:49:28.249Z,100127.48
2017-07-29T14:51:55.690Z,100122.88
2017-07-29T14:54:23.163Z,100122.86
2017-07-29T14:56:50.615Z,100122.52
2017-07-29T14:59:18.070Z,100116.95
2017-07-29T15:01:45.523Z,100118.16
2017-07-29T15:04:12.994Z,100122.20
2017-07-29T15:06:40.551Z,100122.44
2017-07-29T15:09:07.994Z,100115.03
2017-07-29T15:11:35.468Z,100117.39
2017-07-29T15:14:02.913Z,100112.74
2017-07-29T15:16:30.536Z,100116.61
2017-07-29T15:18:58.040Z,100115.91
2017-07-29T15:21:25.516Z,100108.66
2017-07-29T15:23:53.009Z,100115.72
2017-07-29T15:26:20.540Z,100111.85
2017-07-29T15:28:47.984Z,100103.39
2017-07-29T15:31:15.450Z,100099.48
2017-07-29T15:33:42.903Z,100095.34
2017-07-29T15:36:10.365Z,100097.09
2017-07-29T15:38:37.815Z,100098.09
2017-07-29T15:41:05.319Z,100083.06
2017-07-29T15:43:32.791Z,100085.27
2017-07-29T15:46:00.321Z,100079.45
2017-07-29T15:48:27.767Z,100078.51
2017-07-29T15:50:55.243Z,100077.22
2017-07-29T15:53:22.727Z,100072.53
2017-07-29T15:55:50.191Z,100072.82
2017-07-29T15:58:17.653Z,100075.89
2017-07-29T16:00:45.114Z,100076.60
2017-07-29T16:03:12.574Z,100075.84
2017-07-29T16:05:40.021Z,100073.78
2017-07-29T16:08:07.492Z,100065.39
2017-07-29T16:10:34.932Z,100066.31
2017-07-29T16:13:02.495Z,100062.31
2017-07-29T16:15:29.973Z,100065.19
2017-07-29T16:17:57.457Z,100067.07
2017-07-29T16:20:24.899Z,100061.28
2017-07-29T16:22:52.370Z,100064.02
2017-07-29T16:25:19.819Z,100062.28
2017-07-29T16:27:47.333Z,100064.30
2017-07-29T16:30:14.804Z,100063.98
2017-07-29T16:32:42.344Z,100067.13
2017-07-29T16:35:09.815Z,100055.86
2017-07-29T16:37:37.312Z,100065.84
2017-07-29T16:40:04.820Z,100063.09
2017-07-29T16:42:32.369Z,100059.71
2017-07-29T16:44:59.817Z,100061.94
2017-07-29T16:47:27.298Z,100062.23
2017-07-29T16:49:54.802Z,100054.64
2017-07-29T16:52:22.341Z,100053.39
2017-07-29T16:54:49.800Z,100049.16
2017-07-29T16:57:17.271Z,100047.56
2017-07-29T16:59:44.734Z,100045.13
2017-07-29T17:02:12.174Z,100043.03
2017-07-29T17:04:39.637Z,100047.17
2017-07-29T17:07:07.202Z,100034.00
2017-07-29T17:09:34.676Z,100032.22
2017-07-29T17:12:02.223Z,100027.91
2017-07-29T17:14:29.697Z,100024.74
2017-07-29T17:16:57.146Z,100028.80
2017-07-29T17:19:24.642Z,100033.66
2017-07-29T17:21:52.091Z,100029.98
2017-07-29T17:24:19.566Z,100025.81
2017-07-29T17:26:47.094Z,100027.13
2017-07-29T17:29:14.564Z,100026.78
2017-07-29T17:31:42.019Z,100021.36
2017-07-29T17:34:09.482Z,100017.72
2017-07-29T17:36:36.932Z,100019.52
2017-07-29T17:39:04.481Z,100016.95
2017-07-29T17:41:31.958Z,100014.56
2017-07-29T17:43:59.431Z,100016.70
2017-07-29T17:46:26.939Z,100018.84
2017-07-29T17:48:54.419Z,100011.23
2017-07-29T17:51:21.866Z,100006.70
2017-07-29T17:53:49.323Z,99999.44
2017-07-29T17:56:16.886Z,100002.67
2017-07-29T17:58:44.315Z,99997.20
2017-07-29T18:01:11.783Z,99993.45
2017-07-29T18:03:39.254Z,99987.30
2017-07-29T18:06:06.814Z,99991.14
2017-07-29T18:08:34.255Z,99987.88
2017-07-29T18:11:01.726Z,99979.66
2017-07-29T18:13:29.167Z,99979.20
2017-07-29T18:15:56.630Z,99980.09
2017-07-29T18:18:24.062Z,99976.73
2017-07-29T18:20:51.557Z,99980.00
2017-07-29T18:23:18.990Z,99984.58
2017-07-29T18:25:46.461Z,99977.50
2017-07-29T18:28:13.951Z,99980.41
2017-07-29T18:30:41.411Z,99971.59
2017-07-29T18:33:08.937Z,99976.20
2017-07-29T18:35:36.415Z,99975.53
2017-07-29T18:38:03.855Z,99973.79
2017-07-29T18:40:31.336Z,99966.22
2017-07-29T18:42:58.794Z,99974.72
2017-07-29T18:45:26.229Z,99967.14
2017-07-29T18:47:53.717Z,99968.16
2017-07-29T18:50:22.599Z,99967.02
2017-07-29T18:52:50.071Z,99966.32
2017-07-29T18:55:17.574Z,99966.12
2017-07-29T18:57:45.036Z,99968.08
2017-07-29T19:00:12.498Z,99970.70
2017-07-29T19:02:39.963Z,99968.14
2017-07-29T19:05:07.415Z,99965.45
2017-07-29T19:07:34.888Z,99966.70
2017-07-29T19:10:02.332Z,99968.80
2017-07-29T19:12:29.782Z,99970.16
2017-07-29T19:14:57.227Z,99970.32
2017-07-29T19:17:24.699Z,99968.35
2017-07-29T19:19:52.151Z,99974.41
2017-07-29T19:22:19.606Z,99973.64
2017-07-29T19:24:47.112Z,99978.20
2017-07-29T19:27:14.595Z,99978.35
2017-07-29T19:29:42.071Z,99979.97
2017-07-29T19:32:09.535Z,99984.73
2017-07-29T19:34:36.989Z,99978.08
2017-07-29T19:37:04.452Z,99976.67
2017-07-29T19:39:32.007Z,99980.72
2017-07-29T19:41:59.627Z,99988.23
2017-07-29T19:44:27.096Z,99981.88
2017-07-29T19:46:54.579Z,99983.85
2017-07-29T19:49:22.137Z,99982.29
2017-07-29T19:51:49.718Z,99984.50
2017-07-29T19:54:17.455Z,99980.42
2017-07-29T19:56:44.895Z,99980.63
2017-07-29T19:59:12.359Z,99985.44
2017-07-29T20:01:39.818Z,99982.77
2017-07-29T20:04:07.345Z,99991.02
2017-07-29T20:06:34.792Z,99993.59
2017-07-29T20:09:02.248Z,99987.56
2017-07-29T20:11:29.695Z,99992.53
2017-07-29T20:13:57.163Z,99992.53
2017-07-29T20:16:24.614Z,99988.76
2017-07-29T20:18:52.075Z,99986.38
2017-07-29T20:21:19.570Z,99988.86
2017-07-29T20:23:47.094Z,99988.25
2017-07-29T20:26:14.610Z,99997.59
2017-07-29T20:28:42.126Z,99997.48
2017-07-29T20:31:09.571Z,99994.37
2017-07-29T20:33:37.076Z,99994.55
2017-07-29T20:36:04.521Z,99997.81
2017-07-29T20:38:31.986Z,99991.27
2017-07-29T20:40:59.535Z,99987.91
2017-07-29T20:43:26.992Z,99982.11
2017-07-29T20:45:54.464Z,99980.25
2017-07-29T20:48:21.997Z,99988.39
2017-07-29T20:50:49.523Z,99986.11
2017-07-29T20:53:16.991Z,99985.27
2017-07-29T20:55:44.500Z,99978.25
2017-07-29T20:58:11.943Z,99977.87
2017-07-29T21:00:39.409Z,99976.52
2017-07-29T21:03:07.336Z,99976.37
2017-07-29T21:05:35.385Z,99980.19
2017-07-29T21:08:02.846Z,99971.20
2017-07-29T21:10:30.315Z,99968.31
2017-07-29T21:12:57.746Z,99968.16
2017-07-29T21:15:25.265Z,99964.45
2017-07-29T21:17:52.811Z,99964.23
2017-07-29T21:20:20.477Z,99958.45
2017-07-29T21:22:48.555Z,99958.58
2017-07-29T21:25:16.103Z,99960.96
2017-07-29T21:27:43.556Z,99957.81
2017-07-29T21:30:11.015Z,99955.67
2017-07-29T21:32:38.445Z,99955.72
2017-07-29T21:35:05.910Z,99952.12
2017-07-29T21:37:33.396Z,99953.27
2017-07-29T21:40:01.005Z,99948.23
2017-07-29T21:42:30.126Z,99941.59
2017-07-29T21:44:57.720Z,99943.62
2017-07-29T21:47:25.214Z,99944.93
2017-07-29T21:49:52.697Z,99945.34
2017-07-29T21:52:20.282Z,99943.55
2017-07-29T21:54:48.742Z,99937.93
2017-07-29T21:57:16.256Z,99940.26
2017-07-29T21:59:43.814Z,99937.16
2017-07-29T22:02:11.347Z,99941.88
2017-07-29T22:04:38.827Z,99944.52
2017-07-29T22:07:06.570Z,99936.44
2017-07-29T22:09:34.010Z,99932.47
2017-07-29T22:12:01.480Z,99938.22
2017-07-29T22:14:28.926Z,99933.11
2017-07-29T22:16:57.719Z,99938.26
2017-07-29T22:19:25.223Z,99939.72
2017-07-29T22:21:52.746Z,99936.44
2017-07-29T22:24:20.317Z,99938.02
2017-07-29T22:26:47.844Z,99937.28
2017-07-29T22:29:15.341Z,99939.37
2017-07-29T22:31:42.855Z,99931.30
2017-07-29T22:34:10.315Z,99929.35
2017-07-29T22:39:04.577Z,99932.42
2017-07-29T22:41:32.055Z,99929.63
2017-07-29T22:43:59.542Z,99929.16
2017-07-29T22:46:26.979Z,99929.19
2017-07-29T22:48:54.445Z,99923.39
2017-07-29T22:51:21.896Z,99921.81
2017-07-29T22:53:49.363Z,99919.96
2017-07-29T22:56:16.825Z,99920.45
2017-07-29T22:58:44.303Z,99921.01
2017-07-29T23:01:11.807Z,99913.93
2017-07-29T23:03:39.287Z,99904.02
2017-07-29T23:06:06.840Z,99908.86
2017-07-29T23:08:34.270Z,99919.23
2017-07-29T23:11:01.746Z,99917.87
2017-07-29T23:13:29.198Z,99908.07
2017-07-29T23:15:56.659Z,99902.53
2017-07-29T23:18:24.116Z,99907.38
2017-07-29T23:20:51.584Z,99904.12
2017-07-29T23:23:19.032Z,99906.52
2017-07-29T23:25:46.495Z,99899.52
2017-07-29T23:28:13.992Z,99897.88
2017-07-29T23:30:41.484Z,99895.23
2017-07-29T23:33:08.957Z,99892.77
2017-07-29T23:35:36.495Z,99888.88
2017-07-29T23:38:03.978Z,99886.83
2017-07-29T23:40:31.479Z,99890.62
2017-07-29T23:42:58.982Z,99890.69
2017-07-29T23:45:26.467Z,99886.47
2017-07-29T23:47:54.003Z,99885.40
2017-07-29T23:50:21.448Z,99879.39
2017-07-29T23:52:48.943Z,99882.53
2017-07-29T23:55:16.387Z,99885.02
2017-07-29T23:57:43.935Z,99872.89
